sensor_id;sensor_type;location;lat;lon;timestamp;pressure;altitude;pressure_sealevel;temperature;humidity
41632;BME280;37452;51.938;4.624;2023-05-17T00:01:28;78078.44;;;-142.75;100.00
41632;BME280;37452;51.938;4.624;2023-05-17T00:03:53;78070.56;;;-142.75;100.00
41632;BME280;37452;51.938;4.624;2023-05-17T00:06:20;78058.72;;;-142.75;100.00
41632;BME280;37452;51.938;4.624;2023-05-17T00:08:45;78062.69;;;-142.75;100.00
41632;BME280;37452;51.938;4.624;2023-05-17T00:11:11;78042.97;;;-142.75;100.00
41632;BME280;37452;51.938;4.624;2023-05-17T00:13:36;78058.72;;;-142.75;100.00
41632;BME280;37452;51.938;4.624;2023-05-17T00:16:02;78035.09;;;-142.75;100.00
41632;BME280;37452;51.938;4.624;2023-05-17T00:18:27;78035.09;;;-142.75;100.00
41632;BME280;37452;51.938;4.624;2023-05-17T00:20:52;78041.00;;;-142.75;100.00
41632;BME280;37452;51.938;4.624;2023-05-17T00:23:18;78021.31;;;-142.75;100.00
41632;BME280;37452;51.938;4.624;2023-05-17T00:25:43;78019.34;;;-142.75;100.00
41632;BME280;37452;51.938;4.624;2023-05-17T00:28:08;78023.28;;;-142.75;100.00
41632;BME280;37452;51.938;4.624;2023-05-17T00:30:34;78035.09;;;-142.75;100.00
41632;BME280;37452;51.938;4.624;2023-05-17T00:32:59;78027.22;;;-142.75;100.00
41632;BME280;37452;51.938;4.624;2023-05-17T00:35:24;78033.13;;;-142.75;100.00
41632;BME280;37452;51.938;4.624;2023-05-17T00:37:50;78027.22;;;-142.75;100.00
41632;BME280;37452;51.938;4.624;2023-05-17T00:40:15;78023.28;;;-142.75;100.00
41632;BME280;37452;51.938;4.624;2023-05-17T00:42:40;78025.25;;;-142.75;100.00
41632;BME280;37452;51.938;4.624;2023-05-17T00:45:06;78023.28;;;-142.75;100.00
41632;BME280;37452;51.938;4.624;2023-05-17T00:47:31;78037.06;;;-142.75;100.00
41632;BME280;37452;51.938;4.624;2023-05-17T00:49:57;78037.06;;;-142.75;100.00
41632;BME280;37452;51.938;4.624;2023-05-17T00:52:22;78023.28;;;-142.75;100.00
41632;BME280;37452;51.938;4.624;2023-05-17T00:54:47;78027.22;;;-142.75;100.00
41632;BME280;37452;51.938;4.624;2023-05-17T00:57:14;78035.09;;;-142.75;100.00
41632;BME280;37452;51.938;4.624;2023-05-17T00:59:40;78042.97;;;-142.75;100.00
41632;BME280;37452;51.938;4.624;2023-05-17T01:02:06;78054.81;;;-142.75;100.00
41632;BME280;37452;51.938;4.624;2023-05-17T01:04:31;78039.03;;;-142.75;100.00
41632;BME280;37452;51.938;4.624;2023-05-17T01:06:57;78027.22;;;-142.75;100.00
41632;BME280;37452;51.938;4.624;2023-05-17T01:09:22;78037.06;;;-142.75;100.00
41632;BME280;37452;51.938;4.624;2023-05-17T01:14:32;78025.25;;;-142.75;100.00
41632;BME280;37452;51.938;4.624;2023-05-17T01:17:03;78039.03;;;-142.75;100.00
41632;BME280;37452;51.938;4.624;2023-05-17T01:22:14;78029.19;;;-142.75;100.00
41632;BME280;37452;51.938;4.624;2023-05-17T01:24:46;78044.94;;;-142.75;100.00
41632;BME280;37452;51.938;4.624;2023-05-17T01:27:14;78037.06;;;-142.75;100.00
41632;BME280;37452;51.938;4.624;2023-05-17T01:29:40;78013.44;;;-142.75;100.00
41632;BME280;37452;51.938;4.624;2023-05-17T01:32:06;78019.34;;;-142.75;100.00
41632;BME280;37452;51.938;4.624;2023-05-17T01:34:33;78029.19;;;-142.75;100.00
41632;BME280;37452;51.938;4.624;2023-05-17T01:36:58;78023.28;;;-142.75;100.00
41632;BME280;37452;51.938;4.624;2023-05-17T01:39:25;78025.25;;;-142.75;100.00
41632;BME280;37452;51.938;4.624;2023-05-17T01:42:03;78023.28;;;-142.75;100.00
41632;BME280;37452;51.938;4.624;2023-05-17T01:47:01;78019.34;;;-142.75;100.00
41632;BME280;37452;51.938;4.624;2023-05-17T01:49:30;78019.34;;;-142.75;100.00
41632;BME280;37452;51.938;4.624;2023-05-17T01:54:22;78015.41;;;-142.75;100.00
41632;BME280;37452;51.938;4.624;2023-05-17T01:56:54;78007.53;;;-142.75;100.00
41632;BME280;37452;51.938;4.624;2023-05-17T01:59:21;78001.63;;;-142.75;100.00
41632;BME280;37452;51.938;4.624;2023-05-17T02:01:49;78015.41;;;-142.75;100.00
41632;BME280;37452;51.938;4.624;2023-05-17T02:04:15;78007.53;;;-142.75;100.00
41632;BME280;37452;51.938;4.624;2023-05-17T02:06:40;78017.38;;;-142.75;100.00
41632;BME280;37452;51.938;4.624;2023-05-17T02:09:05;78007.53;;;-142.75;100.00
41632;BME280;37452;51.938;4.624;2023-05-17T02:11:31;78021.31;;;-142.75;100.00
41632;BME280;37452;51.938;4.624;2023-05-17T02:13:56;78023.28;;;-142.75;100.00
41632;BME280;37452;51.938;4.624;2023-05-17T02:16:22;78019.34;;;-142.75;100.00
41632;BME280;37452;51.938;4.624;2023-05-17T02:18:47;78023.28;;;-142.75;100.00
41632;BME280;37452;51.938;4.624;2023-05-17T02:21:13;78037.06;;;-142.75;100.00
41632;BME280;37452;51.938;4.624;2023-05-17T02:23:38;78039.03;;;-142.75;100.00
41632;BME280;37452;51.938;4.624;2023-05-17T02:26:03;78031.16;;;-142.75;100.00
41632;BME280;37452;51.938;4.624;2023-05-17T02:28:28;78031.16;;;-142.75;100.00
41632;BME280;37452;51.938;4.624;2023-05-17T02:30:54;78035.09;;;-142.75;100.00
41632;BME280;37452;51.938;4.624;2023-05-17T02:33:20;78029.19;;;-142.75;100.00
41632;BME280;37452;51.938;4.624;2023-05-17T02:35:47;78027.22;;;-142.75;100.00
41632;BME280;37452;51.938;4.624;2023-05-17T02:38:12;78027.22;;;-142.75;100.00
41632;BME280;37452;51.938;4.624;2023-05-17T02:40:39;78023.28;;;-142.75;100.00
41632;BME280;37452;51.938;4.624;2023-05-17T02:43:05;78031.16;;;-142.75;100.00
41632;BME280;37452;51.938;4.624;2023-05-17T02:45:30;78031.16;;;-142.75;100.00
41632;BME280;37452;51.938;4.624;2023-05-17T02:47:55;78033.13;;;-142.75;100.00
41632;BME280;37452;51.938;4.624;2023-05-17T02:50:20;78023.28;;;-142.75;100.00
41632;BME280;37452;51.938;4.624;2023-05-17T02:52:46;78019.34;;;-142.75;100.00
41632;BME280;37452;51.938;4.624;2023-05-17T02:55:11;78019.34;;;-142.75;100.00
41632;BME280;37452;51.938;4.624;2023-05-17T02:57:36;78021.31;;;-142.75;100.00
41632;BME280;37452;51.938;4.624;2023-05-17T03:00:01;78003.59;;;-142.75;100.00
41632;BME280;37452;51.938;4.624;2023-05-17T03:02:27;78015.41;;;-142.75;100.00
41632;BME280;37452;51.938;4.624;2023-05-17T03:04:52;78019.34;;;-142.75;100.00
41632;BME280;37452;51.938;4.624;2023-05-17T03:07:17;78019.34;;;-142.75;100.00
41632;BME280;37452;51.938;4.624;2023-05-17T03:09:43;78015.41;;;-142.75;100.00
41632;BME280;37452;51.938;4.624;2023-05-17T03:12:08;78027.22;;;-142.75;100.00
41632;BME280;37452;51.938;4.624;2023-05-17T03:14:33;78023.28;;;-142.75;100.00
41632;BME280;37452;51.938;4.624;2023-05-17T03:16:59;78021.31;;;-142.75;100.00
41632;BME280;37452;51.938;4.624;2023-05-17T03:19:24;78027.22;;;-142.75;100.00
41632;BME280;37452;51.938;4.624;2023-05-17T03:21:49;78033.13;;;-142.75;100.00
41632;BME280;37452;51.938;4.624;2023-05-17T03:24:15;78023.28;;;-142.75;100.00
41632;BME280;37452;51.938;4.624;2023-05-17T03:26:40;78023.28;;;-142.75;100.00
41632;BME280;37452;51.938;4.624;2023-05-17T03:29:05;78031.16;;;-142.75;100.00
41632;BME280;37452;51.938;4.624;2023-05-17T03:31:30;78023.28;;;-142.75;100.00
41632;BME280;37452;51.938;4.624;2023-05-17T03:33:55;78015.41;;;-142.75;100.00
41632;BME280;37452;51.938;4.624;2023-05-17T03:36:21;78023.28;;;-142.75;100.00
41632;BME280;37452;51.938;4.624;2023-05-17T03:38:46;78025.25;;;-142.75;100.00
41632;BME280;37452;51.938;4.624;2023-05-17T03:41:11;78025.25;;;-142.75;100.00
41632;BME280;37452;51.938;4.624;2023-05-17T03:43:37;78035.09;;;-142.75;100.00
41632;BME280;37452;51.938;4.624;2023-05-17T03:46:02;78037.06;;;-142.75;100.00
41632;BME280;37452;51.938;4.624;2023-05-17T03:48:27;78035.09;;;-142.75;100.00
41632;BME280;37452;51.938;4.624;2023-05-17T03:50:52;78029.19;;;-142.75;100.00
41632;BME280;37452;51.938;4.624;2023-05-17T03:53:18;78025.25;;;-142.75;100.00
41632;BME280;37452;51.938;4.624;2023-05-17T03:55:43;78027.22;;;-142.75;100.00
41632;BME280;37452;51.938;4.624;2023-05-17T03:58:08;78023.28;;;-142.75;100.00
41632;BME280;37452;51.938;4.624;2023-05-17T04:00:33;78023.28;;;-142.75;100.00
41632;BME280;37452;51.938;4.624;2023-05-17T04:02:59;78031.16;;;-142.75;100.00
41632;BME280;37452;51.938;4.624;2023-05-17T04:05:24;78031.16;;;-142.75;100.00
41632;BME280;37452;51.938;4.624;2023-05-17T04:07:50;78031.16;;;-142.75;100.00
41632;BME280;37452;51.938;4.624;2023-05-17T04:10:15;78009.50;;;-142.75;100.00
41632;BME280;37452;51.938;4.624;2023-05-17T04:12:41;78015.41;;;-142.75;100.00
41632;BME280;37452;51.938;4.624;2023-05-17T04:15:06;78021.31;;;-142.75;100.00
41632;BME280;37452;51.938;4.624;2023-05-17T04:17:31;78027.22;;;-142.75;100.00
41632;BME280;37452;51.938;4.624;2023-05-17T04:19:57;78039.03;;;-142.75;100.00
41632;BME280;37452;51.938;4.624;2023-05-17T04:22:22;78025.25;;;-142.75;100.00
41632;BME280;37452;51.938;4.624;2023-05-17T04:24:47;78023.28;;;-142.75;100.00
41632;BME280;37452;51.938;4.624;2023-05-17T04:27:12;78046.91;;;-142.75;100.00
41632;BME280;37452;51.938;4.624;2023-05-17T04:29:38;78056.78;;;-142.75;100.00
41632;BME280;37452;51.938;4.624;2023-05-17T04:32:04;78050.84;;;-142.75;100.00
41632;BME280;37452;51.938;4.624;2023-05-17T04:34:30;78041.00;;;-142.75;100.00
41632;BME280;37452;51.938;4.624;2023-05-17T04:36:56;78039.03;;;-142.75;100.00
41632;BME280;37452;51.938;4.624;2023-05-17T04:39:21;78052.81;;;-142.75;100.00
41632;BME280;37452;51.938;4.624;2023-05-17T04:41:46;78050.84;;;-142.75;100.00
41632;BME280;37452;51.938;4.624;2023-05-17T04:44:11;78046.91;;;-142.75;100.00
41632;BME280;37452;51.938;4.624;2023-05-17T04:46:37;78054.81;;;-142.75;100.00
41632;BME280;37452;51.938;4.624;2023-05-17T04:49:02;78042.97;;;-142.75;100.00
41632;BME280;37452;51.938;4.624;2023-05-17T04:51:28;78050.84;;;-142.75;100.00
41632;BME280;37452;51.938;4.624;2023-05-17T04:53:53;78052.81;;;-142.75;100.00
41632;BME280;37452;51.938;4.624;2023-05-17T04:56:18;78050.84;;;-142.75;100.00
41632;BME280;37452;51.938;4.624;2023-05-17T04:58:43;78050.84;;;-142.75;100.00
41632;BME280;37452;51.938;4.624;2023-05-17T05:01:09;78054.81;;;-142.75;100.00
41632;BME280;37452;51.938;4.624;2023-05-17T05:03:34;78054.81;;;-142.75;100.00
41632;BME280;37452;51.938;4.624;2023-05-17T05:06:00;78068.59;;;-142.75;100.00
41632;BME280;37452;51.938;4.624;2023-05-17T05:08:26;78068.59;;;-142.75;100.00
41632;BME280;37452;51.938;4.624;2023-05-17T05:10:52;78066.63;;;-142.75;100.00
41632;BME280;37452;51.938;4.624;2023-05-17T05:13:17;78058.72;;;-142.75;100.00
41632;BME280;37452;51.938;4.624;2023-05-17T05:15:42;78078.44;;;-142.75;100.00
41632;BME280;37452;51.938;4.624;2023-05-17T05:18:07;78052.81;;;-142.75;100.00
41632;BME280;37452;51.938;4.624;2023-05-17T05:20:33;78033.13;;;-142.75;100.00
41632;BME280;37452;51.938;4.624;2023-05-17T05:22:58;78035.09;;;-142.75;100.00
41632;BME280;37452;51.938;4.624;2023-05-17T05:25:24;78066.63;;;-142.75;100.00
41632;BME280;37452;51.938;4.624;2023-05-17T05:27:50;78039.03;;;-142.75;100.00
41632;BME280;37452;51.938;4.624;2023-05-17T05:30:15;78025.25;;;-142.75;100.00
41632;BME280;37452;51.938;4.624;2023-05-17T05:32:46;78027.22;;;-142.75;100.00
41632;BME280;37452;51.938;4.624;2023-05-17T05:35:11;78019.34;;;-142.75;100.00
41632;BME280;37452;51.938;4.624;2023-05-17T05:37:36;78039.03;;;-142.75;100.00
41632;BME280;37452;51.938;4.624;2023-05-17T05:40:01;78023.28;;;-142.75;100.00
41632;BME280;37452;51.938;4.624;2023-05-17T05:42:27;78019.34;;;-142.75;100.00
41632;BME280;37452;51.938;4.624;2023-05-17T05:44:53;78037.06;;;-142.75;100.00
41632;BME280;37452;51.938;4.624;2023-05-17T05:47:18;78019.34;;;-142.75;100.00
41632;BME280;37452;51.938;4.624;2023-05-17T05:49:44;78031.16;;;-142.75;100.00
41632;BME280;37452;51.938;4.624;2023-05-17T05:52:09;78017.38;;;-142.75;100.00
41632;BME280;37452;51.938;4.624;2023-05-17T05:54:35;78007.53;;;-142.75;100.00
41632;BME280;37452;51.938;4.624;2023-05-17T05:57:00;77989.81;;;-142.75;100.00
41632;BME280;37452;51.938;4.624;2023-05-17T05:59:26;77978.00;;;-142.75;100.00
41632;BME280;37452;51.938;4.624;2023-05-17T06:01:51;77968.16;;;-142.75;100.00
41632;BME280;37452;51.938;4.624;2023-05-17T06:04:16;77968.16;;;-142.75;100.00
41632;BME280;37452;51.938;4.624;2023-05-17T06:06:41;77960.28;;;-142.75;100.00
41632;BME280;37452;51.938;4.624;2023-05-17T06:09:06;77958.31;;;-142.75;100.00
41632;BME280;37452;51.938;4.624;2023-05-17T06:11:36;77976.03;;;-142.75;100.00
41632;BME280;37452;51.938;4.624;2023-05-17T06:14:01;77974.06;;;-142.75;100.00
41632;BME280;37452;51.938;4.624;2023-05-17T06:16:26;77976.03;;;-142.75;100.00
41632;BME280;37452;51.938;4.624;2023-05-17T06:18:51;77944.53;;;-142.75;100.00
41632;BME280;37452;51.938;4.624;2023-05-17T06:21:16;77956.34;;;-142.75;100.00
41632;BME280;37452;51.938;4.624;2023-05-17T06:23:42;77934.69;;;-142.75;100.00
41632;BME280;37452;51.938;4.624;2023-05-17T06:26:07;77920.91;;;-142.75;100.00
41632;BME280;37452;51.938;4.624;2023-05-17T06:28:34;77915.00;;;-142.75;100.00
41632;BME280;37452;51.938;4.624;2023-05-17T06:31:00;77924.84;;;-142.75;100.00
41632;BME280;37452;51.938;4.624;2023-05-17T06:33:25;77885.44;;;-142.75;100.00
41632;BME280;37452;51.938;4.624;2023-05-17T06:35:50;77881.50;;;-142.75;100.00
41632;BME280;37452;51.938;4.624;2023-05-17T06:38:15;77855.91;;;-142.75;100.00
41632;BME280;37452;51.938;4.624;2023-05-17T06:40:41;77826.38;;;-142.75;100.00
41632;BME280;37452;51.938;4.624;2023-05-17T06:43:06;77818.50;;;-142.75;100.00
41632;BME280;37452;51.938;4.624;2023-05-17T06:45:31;77796.84;;;-142.75;100.00
41632;BME280;37452;51.938;4.624;2023-05-17T06:47:56;77771.25;;;-142.75;100.00
41632;BME280;37452;51.938;4.624;2023-05-17T06:50:21;77812.59;;;-142.75;100.00
41632;BME280;37452;51.938;4.624;2023-05-17T06:52:47;77806.69;;;-142.75;100.00
41632;BME280;37452;51.938;4.624;2023-05-17T06:55:12;77796.84;;;-142.75;100.00
41632;BME280;37452;51.938;4.624;2023-05-17T06:57:37;77779.13;;;-142.75;100.00
41632;BME280;37452;51.938;4.624;2023-05-17T07:00:03;77802.75;;;-142.75;100.00
41632;BME280;37452;51.938;4.624;2023-05-17T07:02:30;77804.72;;;-142.75;98.98
41632;BME280;37452;51.938;4.624;2023-05-17T07:04:56;77824.41;;;-142.75;94.85
41632;BME280;37452;51.938;4.624;2023-05-17T07:07:22;77814.56;;;-142.75;91.32
41632;BME280;37452;51.938;4.624;2023-05-17T07:09:47;77794.88;;;-142.75;92.62
41632;BME280;37452;51.938;4.624;2023-05-17T07:12:12;77850.00;;;-142.75;90.04
41632;BME280;37452;51.938;4.624;2023-05-17T07:14:37;77836.22;;;-142.75;89.70
41632;BME280;37452;51.938;4.624;2023-05-17T07:17:02;77792.91;;;-142.75;89.93
41632;BME280;37452;51.938;4.624;2023-05-17T07:19:28;77781.09;;;-142.75;89.57
41632;BME280;37452;51.938;4.624;2023-05-17T07:21:53;77785.03;;;-142.75;89.69
41632;BME280;37452;51.938;4.624;2023-05-17T07:24:18;77759.44;;;-142.75;89.58
41632;BME280;37452;51.938;4.624;2023-05-17T07:26:44;77704.28;;;-142.75;93.91
41632;BME280;37452;51.938;4.624;2023-05-17T07:29:10;77700.34;;;-142.75;92.74
41632;BME280;37452;51.938;4.624;2023-05-17T07:31:35;77680.66;;;-142.75;91.17
41632;BME280;37452;51.938;4.624;2023-05-17T07:34:00;77666.88;;;-142.75;88.94
41632;BME280;37452;51.938;4.624;2023-05-17T07:36:26;77649.16;;;-142.75;89.55
41632;BME280;37452;51.938;4.624;2023-05-17T07:38:54;77635.38;;;-142.75;90.14
41632;BME280;37452;51.938;4.624;2023-05-17T07:41:19;77639.31;;;-142.75;89.96
41632;BME280;37452;51.938;4.624;2023-05-17T07:43:47;77627.50;;;-142.75;85.17
41632;BME280;37452;51.938;4.624;2023-05-17T07:46:12;77596.00;;;-142.75;86.70
41632;BME280;37452;51.938;4.624;2023-05-17T07:48:37;77588.13;;;-142.75;87.25
41632;BME280;37452;51.938;4.624;2023-05-17T07:51:02;77574.34;;;-142.75;84.16
41632;BME280;37452;51.938;4.624;2023-05-17T07:53:28;77558.59;;;-142.75;84.08
41632;BME280;37452;51.938;4.624;2023-05-17T07:55:53;77523.16;;;-142.75;85.32
41632;BME280;37452;51.938;4.624;2023-05-17T07:58:18;77544.81;;;-142.75;85.22
41632;BME280;37452;51.938;4.624;2023-05-17T08:00:43;77554.66;;;-142.75;86.62
41632;BME280;37452;51.938;4.624;2023-05-17T08:03:08;77544.81;;;-142.75;81.58
41632;BME280;37452;51.938;4.624;2023-05-17T08:05:34;77531.03;;;-142.75;81.77
41632;BME280;37452;51.938;4.624;2023-05-17T08:07:59;77552.69;;;-142.75;81.96
41632;BME280;37452;51.938;4.624;2023-05-17T08:10:25;77566.47;;;-142.75;81.41
41632;BME280;37452;51.938;4.624;2023-05-17T08:12:51;77538.91;;;-142.75;80.44
41632;BME280;37452;51.938;4.624;2023-05-17T08:15:16;77521.19;;;-142.75;81.42
41632;BME280;37452;51.938;4.624;2023-05-17T08:17:41;77499.53;;;-142.75;81.38
41632;BME280;37452;51.938;4.624;2023-05-17T08:20:07;77487.72;;;-142.75;81.90
41632;BME280;37452;51.938;4.624;2023-05-17T08:22:32;77497.56;;;-142.75;80.23
41632;BME280;37452;51.938;4.624;2023-05-17T08:24:57;77491.66;;;-142.75;76.49
41632;BME280;37452;51.938;4.624;2023-05-17T08:27:22;77503.47;;;-142.75;75.57
41632;BME280;37452;51.938;4.624;2023-05-17T08:29:49;77552.69;;;-142.75;74.66
41632;BME280;37452;51.938;4.624;2023-05-17T08:32:15;77523.16;;;-142.75;74.23
41632;BME280;37452;51.938;4.624;2023-05-17T08:34:40;77503.47;;;-142.75;74.60
41632;BME280;37452;51.938;4.624;2023-05-17T08:37:06;77475.91;;;-142.75;71.93
41632;BME280;37452;51.938;4.624;2023-05-17T08:39:32;77487.72;;;-142.75;73.86
41632;BME280;37452;51.938;4.624;2023-05-17T08:41:57;77503.47;;;-142.75;73.87
41632;BME280;37452;51.938;4.624;2023-05-17T08:44:23;77509.38;;;-142.75;75.42
41632;BME280;37452;51.938;4.624;2023-05-17T08:46:49;77519.22;;;-142.75;74.59
41632;BME280;37452;51.938;4.624;2023-05-17T08:49:18;77470.00;;;-142.75;74.66
41632;BME280;37452;51.938;4.624;2023-05-17T08:51:46;77499.53;;;-142.75;75.73
41632;BME280;37452;51.938;4.624;2023-05-17T08:54:13;77497.56;;;-142.75;74.58
41632;BME280;37452;51.938;4.624;2023-05-17T08:56:39;77432.56;;;-142.75;76.92
41632;BME280;37452;51.938;4.624;2023-05-17T08:59:07;77406.97;;;-142.75;76.35
41632;BME280;37452;51.938;4.624;2023-05-17T09:01:33;77448.34;;;-142.75;75.35
41632;BME280;37452;51.938;4.624;2023-05-17T09:03:59;77422.72;;;-142.75;74.11
41632;BME280;37452;51.938;4.624;2023-05-17T09:06:24;77365.63;;;-142.75;76.07
41632;BME280;37452;51.938;4.624;2023-05-17T09:08:50;77349.88;;;-142.75;73.95
41632;BME280;37452;51.938;4.624;2023-05-17T09:11:25;77371.53;;;-142.75;74.64
41632;BME280;37452;51.938;4.624;2023-05-17T09:13:51;77361.69;;;-142.75;71.10
41632;BME280;37452;51.938;4.624;2023-05-17T09:16:16;77377.44;;;-142.75;71.25
41632;BME280;37452;51.938;4.624;2023-05-17T09:18:51;77338.06;;;-142.75;73.59
41632;BME280;37452;51.938;4.624;2023-05-17T09:21:17;77387.28;;;-142.75;71.25
41632;BME280;37452;51.938;4.624;2023-05-17T09:23:42;77377.44;;;-142.75;69.87
41632;BME280;37452;51.938;4.624;2023-05-17T09:26:10;77338.06;;;-142.75;70.70
41632;BME280;37452;51.938;4.624;2023-05-17T09:28:38;77306.56;;;-142.75;72.56
41632;BME280;37452;51.938;4.624;2023-05-17T09:31:06;77302.63;;;-142.75;73.73
41632;BME280;37452;51.938;4.624;2023-05-17T09:33:32;77300.66;;;-142.75;69.57
41632;BME280;37452;51.938;4.624;2023-05-17T09:35:58;77316.41;;;-142.75;70.31
41632;BME280;37452;51.938;4.624;2023-05-17T09:38:25;77320.34;;;-142.75;69.47
41632;BME280;37452;51.938;4.624;2023-05-17T09:40:51;77286.88;;;-142.75;70.83
41632;BME280;37452;51.938;4.624;2023-05-17T09:43:21;77277.03;;;-142.75;72.18
41632;BME280;37452;51.938;4.624;2023-05-17T09:45:53;77263.25;;;-142.75;68.66
41632;BME280;37452;51.938;4.624;2023-05-17T09:48:18;77290.81;;;-142.75;66.87
41632;BME280;37452;51.938;4.624;2023-05-17T09:50:49;77284.91;;;-142.75;69.02
41632;BME280;37452;51.938;4.624;2023-05-17T09:53:27;77286.88;;;-142.75;66.37
41632;BME280;37452;51.938;4.624;2023-05-17T09:55:53;77275.06;;;-142.75;68.81
41632;BME280;37452;51.938;4.624;2023-05-17T09:58:19;77286.88;;;-142.75;67.14
41632;BME280;37452;51.938;4.624;2023-05-17T10:00:45;77286.88;;;-142.75;68.31
41632;BME280;37452;51.938;4.624;2023-05-17T10:03:13;77231.75;;;-142.75;68.46
41632;BME280;37452;51.938;4.624;2023-05-17T10:05:39;77212.06;;;-142.75;70.18
41632;BME280;37452;51.938;4.624;2023-05-17T10:08:07;77216.00;;;-142.75;70.11
41632;BME280;37452;51.938;4.624;2023-05-17T10:10:33;77210.09;;;-142.75;68.65
41632;BME280;37452;51.938;4.624;2023-05-17T10:12:58;77216.00;;;-142.75;68.88
41632;BME280;37452;51.938;4.624;2023-05-17T10:15:24;77231.75;;;-142.75;70.03
41632;BME280;37452;51.938;4.624;2023-05-17T10:17:50;77247.50;;;-142.75;70.47
41632;BME280;37452;51.938;4.624;2023-05-17T10:20:15;77249.47;;;-142.75;72.98
41632;BME280;37452;51.938;4.624;2023-05-17T10:22:41;77192.38;;;-142.75;71.22
41632;BME280;37452;51.938;4.624;2023-05-17T10:25:07;77208.13;;;-142.75;71.24
41632;BME280;37452;51.938;4.624;2023-05-17T10:27:32;77212.06;;;-142.75;67.84
41632;BME280;37452;51.938;4.624;2023-05-17T10:29:58;77204.19;;;-142.75;69.04
41632;BME280;37452;51.938;4.624;2023-05-17T10:32:24;77202.22;;;-142.75;69.78
41632;BME280;37452;51.938;4.624;2023-05-17T10:34:51;77196.31;;;-142.75;70.68
41632;BME280;37452;51.938;4.624;2023-05-17T10:37:17;77210.09;;;-142.75;68.20
41632;BME280;37452;51.938;4.624;2023-05-17T10:39:43;77223.88;;;-142.75;68.31
41632;BME280;37452;51.938;4.624;2023-05-17T10:42:11;77202.22;;;-142.75;68.26
41632;BME280;37452;51.938;4.624;2023-05-17T10:44:37;77204.19;;;-142.75;68.87
41632;BME280;37452;51.938;4.624;2023-05-17T10:47:02;77198.28;;;-142.75;67.85
41632;BME280;37452;51.938;4.624;2023-05-17T10:49:29;77223.88;;;-142.75;67.29
41632;BME280;37452;51.938;4.624;2023-05-17T10:51:55;77212.06;;;-142.75;67.97
41632;BME280;37452;51.938;4.624;2023-05-17T10:54:21;77208.13;;;-142.75;69.09
41632;BME280;37452;51.938;4.624;2023-05-17T10:56:58;77200.25;;;-142.75;69.48
41632;BME280;37452;51.938;4.624;2023-05-17T10:59:26;77143.16;;;-142.75;70.65
41632;BME280;37452;51.938;4.624;2023-05-17T11:04:25;77139.22;;;-142.75;65.66
41632;BME280;37452;51.938;4.624;2023-05-17T11:06:51;77115.59;;;-142.75;65.79
41632;BME280;37452;51.938;4.624;2023-05-17T11:09:16;77154.97;;;-142.75;67.37
41632;BME280;37452;51.938;4.624;2023-05-17T11:12:04;77133.31;;;-142.75;68.34
41632;BME280;37452;51.938;4.624;2023-05-17T11:15:03;77156.94;;;-142.75;63.51
41632;BME280;37452;51.938;4.624;2023-05-17T11:17:25;77196.31;;;-142.75;64.33
41632;BME280;37452;51.938;4.624;2023-05-17T11:22:16;77149.06;;;-142.75;62.99
41632;BME280;37452;51.938;4.624;2023-05-17T11:24:43;77127.41;;;-142.75;65.65
41632;BME280;37452;51.938;4.624;2023-05-17T11:27:08;77101.81;;;-142.75;64.41
41632;BME280;37452;51.938;4.624;2023-05-17T11:29:34;77125.44;;;-142.75;65.42
41632;BME280;37452;51.938;4.624;2023-05-17T11:32:06;77131.34;;;-142.75;66.78
41632;BME280;37452;51.938;4.624;2023-05-17T11:34:34;77119.53;;;-142.75;65.97
41632;BME280;37452;51.938;4.624;2023-05-17T11:36:59;77097.88;;;-142.75;63.31
41632;BME280;37452;51.938;4.624;2023-05-17T11:39:25;77093.94;;;-142.75;63.42
41632;BME280;37452;51.938;4.624;2023-05-17T11:41:54;77056.53;;;-142.75;62.33
41632;BME280;37452;51.938;4.624;2023-05-17T11:46:51;77040.78;;;-142.75;61.40
41632;BME280;37452;51.938;4.624;2023-05-17T11:49:17;77042.75;;;-142.75;59.81
41632;BME280;37452;51.938;4.624;2023-05-17T11:51:44;77090.00;;;-142.75;62.88
41632;BME280;37452;51.938;4.624;2023-05-17T11:54:09;77141.19;;;-142.75;64.75
41632;BME280;37452;51.938;4.624;2023-05-17T11:56:35;77123.47;;;-142.75;64.29
41632;BME280;37452;51.938;4.624;2023-05-17T11:59:00;77176.63;;;-142.75;64.72
41632;BME280;37452;51.938;4.624;2023-05-17T12:01:26;77121.50;;;-142.75;69.45
41632;BME280;37452;51.938;4.624;2023-05-17T12:03:54;77160.88;;;-142.75;66.31
41632;BME280;37452;51.938;4.624;2023-05-17T12:06:21;77137.25;;;-142.75;66.17
41632;BME280;37452;51.938;4.624;2023-05-17T12:08:48;77151.03;;;-142.75;64.35
41632;BME280;37452;51.938;4.624;2023-05-17T12:11:14;77105.75;;;-142.75;67.56
41632;BME280;37452;51.938;4.624;2023-05-17T12:13:39;77131.34;;;-142.75;67.38
41632;BME280;37452;51.938;4.624;2023-05-17T12:16:08;77107.72;;;-142.75;67.75
41632;BME280;37452;51.938;4.624;2023-05-17T12:18:36;77133.31;;;-142.75;70.49
41632;BME280;37452;51.938;4.624;2023-05-17T12:21:01;77176.63;;;-142.75;67.32
41632;BME280;37452;51.938;4.624;2023-05-17T12:23:28;77137.25;;;-142.75;67.52
41632;BME280;37452;51.938;4.624;2023-05-17T12:28:28;77109.69;;;-142.75;67.80
41632;BME280;37452;51.938;4.624;2023-05-17T12:30:53;77133.31;;;-142.75;64.34
41632;BME280;37452;51.938;4.624;2023-05-17T12:33:21;77111.66;;;-142.75;70.08
41632;BME280;37452;51.938;4.624;2023-05-17T12:35:47;77078.19;;;-142.75;68.60
41632;BME280;37452;51.938;4.624;2023-05-17T12:38:12;77064.41;;;-142.75;68.04
41632;BME280;37452;51.938;4.624;2023-05-17T12:40:40;77088.03;;;-142.75;64.41
41632;BME280;37452;51.938;4.624;2023-05-17T12:43:05;77086.06;;;-142.75;65.67
41632;BME280;37452;51.938;4.624;2023-05-17T12:45:40;77052.59;;;-142.75;64.66
41632;BME280;37452;51.938;4.624;2023-05-17T12:48:06;77095.91;;;-142.75;67.30
41632;BME280;37452;51.938;4.624;2023-05-17T12:50:31;77125.44;;;-142.75;65.74